sensor_id;sensor_type;location;lat;lon;timestamp;P1;durP1;ratioP1;P2;durP2;ratioP2
69485;SDS011;56677;51.710;5.366;2023-05-02T04:11:32;3.95;;;2.25;;
69485;SDS011;56677;51.710;5.366;2023-05-02T04:13:57;4.57;;;2.47;;
69485;SDS011;56677;51.710;5.366;2023-05-02T04:16:23;3.72;;;2.15;;
69485;SDS011;56677;51.710;5.366;2023-05-02T04:18:48;4.13;;;2.30;;
69485;SDS011;56677;51.710;5.366;2023-05-02T04:21:13;5.55;;;2.10;;
69485;SDS011;56677;51.710;5.366;2023-05-02T04:23:38;3.40;;;2.10;;
69485;SDS011;56677;51.710;5.366;2023-05-02T04:26:03;4.97;;;2.13;;
69485;SDS011;56677;51.710;5.366;2023-05-02T04:28:28;5.77;;;2.30;;
69485;SDS011;56677;51.710;5.366;2023-05-02T04:30:54;3.30;;;2.07;;
69485;SDS011;56677;51.710;5.366;2023-05-02T04:33:19;3.85;;;1.88;;
69485;SDS011;56677;51.710;5.366;2023-05-02T04:35:45;3.25;;;2.03;;
69485;SDS011;56677;51.710;5.366;2023-05-02T04:38:10;4.38;;;2.20;;
69485;SDS011;56677;51.710;5.366;2023-05-02T04:40:35;4.57;;;1.80;;
69485;SDS011;56677;51.710;5.366;2023-05-02T04:43:00;4.72;;;2.35;;
69485;SDS011;56677;51.710;5.366;2023-05-02T04:45:25;3.50;;;1.85;;
69485;SDS011;56677;51.710;5.366;2023-05-02T04:47:50;6.05;;;2.28;;
69485;SDS011;56677;51.710;5.366;2023-05-02T04:50:15;4.57;;;1.88;;
69485;SDS011;56677;51.710;5.366;2023-05-02T04:52:41;3.97;;;1.80;;
69485;SDS011;56677;51.710;5.366;2023-05-02T04:55:06;4.20;;;1.90;;
69485;SDS011;56677;51.710;5.366;2023-05-02T04:57:31;5.13;;;2.40;;
69485;SDS011;56677;51.710;5.366;2023-05-02T04:59:56;6.97;;;1.88;;
69485;SDS011;56677;51.710;5.366;2023-05-02T05:02:21;2.83;;;1.75;;
69485;SDS011;56677;51.710;5.366;2023-05-02T05:04:46;4.30;;;2.07;;
69485;SDS011;56677;51.710;5.366;2023-05-02T05:07:11;2.90;;;1.47;;
69485;SDS011;56677;51.710;5.366;2023-05-02T05:09:37;4.00;;;1.67;;
69485;SDS011;56677;51.710;5.366;2023-05-02T05:12:02;4.35;;;1.98;;
69485;SDS011;56677;51.710;5.366;2023-05-02T05:14:27;4.33;;;2.10;;
69485;SDS011;56677;51.710;5.366;2023-05-02T05:16:52;3.17;;;1.73;;
69485;SDS011;56677;51.710;5.366;2023-05-02T05:19:17;3.65;;;1.85;;
69485;SDS011;56677;51.710;5.366;2023-05-02T05:21:42;3.28;;;1.90;;
69485;SDS011;56677;51.710;5.366;2023-05-02T05:24:07;5.90;;;2.00;;
69485;SDS011;56677;51.710;5.366;2023-05-02T05:26:32;5.57;;;1.90;;
69485;SDS011;56677;51.710;5.366;2023-05-02T05:28:58;2.78;;;2.00;;
69485;SDS011;56677;51.710;5.366;2023-05-02T05:31:23;4.22;;;1.70;;
69485;SDS011;56677;51.710;5.366;2023-05-02T05:33:48;3.90;;;2.17;;
69485;SDS011;56677;51.710;5.366;2023-05-02T05:36:13;3.75;;;1.80;;
69485;SDS011;56677;51.710;5.366;2023-05-02T05:38:38;4.35;;;2.20;;
69485;SDS011;56677;51.710;5.366;2023-05-02T05:41:03;3.80;;;1.90;;
69485;SDS011;56677;51.710;5.366;2023-05-02T05:43:28;3.53;;;1.63;;
69485;SDS011;56677;51.710;5.366;2023-05-02T05:45:54;5.43;;;1.80;;
69485;SDS011;56677;51.710;5.366;2023-05-02T05:48:19;5.23;;;1.50;;
69485;SDS011;56677;51.710;5.366;2023-05-02T05:50:44;3.23;;;1.73;;
69485;SDS011;56677;51.710;5.366;2023-05-02T05:53:10;3.10;;;2.00;;
69485;SDS011;56677;51.710;5.366;2023-05-02T05:55:35;3.20;;;1.77;;
69485;SDS011;56677;51.710;5.366;2023-05-02T05:58:00;4.57;;;1.70;;
69485;SDS011;56677;51.710;5.366;2023-05-02T06:00:25;4.63;;;1.63;;
69485;SDS011;56677;51.710;5.366;2023-05-02T06:02:50;2.67;;;1.63;;
69485;SDS011;56677;51.710;5.366;2023-05-02T06:05:15;2.63;;;1.50;;
69485;SDS011;56677;51.710;5.366;2023-05-02T06:07:41;8.90;;;1.70;;
69485;SDS011;56677;51.710;5.366;2023-05-02T06:10:06;3.33;;;1.63;;
69485;SDS011;56677;51.710;5.366;2023-05-02T06:12:31;4.23;;;1.60;;
69485;SDS011;56677;51.710;5.366;2023-05-02T06:14:56;3.78;;;1.40;;
69485;SDS011;56677;51.710;5.366;2023-05-02T06:17:21;6.38;;;2.10;;
69485;SDS011;56677;51.710;5.366;2023-05-02T06:19:46;3.63;;;1.60;;
69485;SDS011;56677;51.710;5.366;2023-05-02T06:22:11;3.50;;;1.83;;
69485;SDS011;56677;51.710;5.366;2023-05-02T06:24:36;3.60;;;1.83;;
69485;SDS011;56677;51.710;5.366;2023-05-02T06:27:02;3.75;;;1.80;;
69485;SDS011;56677;51.710;5.366;2023-05-02T06:29:27;6.20;;;1.98;;
69485;SDS011;56677;51.710;5.366;2023-05-02T06:31:53;4.53;;;1.63;;
69485;SDS011;56677;51.710;5.366;2023-05-02T06:34:19;4.87;;;1.80;;
69485;SDS011;56677;51.710;5.366;2023-05-02T06:36:44;6.70;;;1.90;;
69485;SDS011;56677;51.710;5.366;2023-05-02T06:39:09;3.47;;;1.60;;
69485;SDS011;56677;51.710;5.366;2023-05-02T06:41:34;7.13;;;1.70;;
69485;SDS011;56677;51.710;5.366;2023-05-02T06:43:59;4.20;;;1.38;;
69485;SDS011;56677;51.710;5.366;2023-05-02T06:46:27;5.70;;;1.77;;
69485;SDS011;56677;51.710;5.366;2023-05-02T06:48:52;3.05;;;1.60;;
69485;SDS011;56677;51.710;5.366;2023-05-02T06:51:17;7.28;;;1.45;;
69485;SDS011;56677;51.710;5.366;2023-05-02T06:53:42;3.03;;;1.57;;
69485;SDS011;56677;51.710;5.366;2023-05-02T06:56:07;4.97;;;2.33;;
69485;SDS011;56677;51.710;5.366;2023-05-02T06:58:32;3.85;;;1.52;;
69485;SDS011;56677;51.710;5.366;2023-05-02T07:00:58;3.78;;;1.63;;
69485;SDS011;56677;51.710;5.366;2023-05-02T07:03:23;4.20;;;1.52;;
69485;SDS011;56677;51.710;5.366;2023-05-02T07:05:48;4.43;;;1.70;;
69485;SDS011;56677;51.710;5.366;2023-05-02T07:08:13;3.90;;;1.90;;
69485;SDS011;56677;51.710;5.366;2023-05-02T07:10:38;4.25;;;1.83;;
69485;SDS011;56677;51.710;5.366;2023-05-02T07:13:03;10.50;;;1.92;;
69485;SDS011;56677;51.710;5.366;2023-05-02T07:15:28;10.77;;;2.10;;
69485;SDS011;56677;51.710;5.366;2023-05-02T07:17:53;4.57;;;1.90;;
69485;SDS011;56677;51.710;5.366;2023-05-02T07:20:19;7.60;;;1.60;;
69485;SDS011;56677;51.710;5.366;2023-05-02T07:22:44;7.13;;;1.77;;
69485;SDS011;56677;51.710;5.366;2023-05-02T07:25:09;5.63;;;1.80;;
69485;SDS011;56677;51.710;5.366;2023-05-02T07:27:34;5.13;;;2.00;;
69485;SDS011;56677;51.710;5.366;2023-05-02T07:29:59;6.23;;;1.90;;
69485;SDS011;56677;51.710;5.366;2023-05-02T07:32:24;4.15;;;1.60;;
69485;SDS011;56677;51.710;5.366;2023-05-02T07:34:49;3.47;;;1.37;;
69485;SDS011;56677;51.710;5.366;2023-05-02T07:37:15;9.47;;;1.90;;
69485;SDS011;56677;51.710;5.366;2023-05-02T07:39:40;8.15;;;2.17;;
69485;SDS011;56677;51.710;5.366;2023-05-02T07:42:05;7.70;;;1.95;;
69485;SDS011;56677;51.710;5.366;2023-05-02T07:44:30;6.20;;;2.28;;
69485;SDS011;56677;51.710;5.366;2023-05-02T07:46:56;4.67;;;1.50;;
69485;SDS011;56677;51.710;5.366;2023-05-02T07:49:21;6.70;;;1.90;;
69485;SDS011;56677;51.710;5.366;2023-05-02T07:51:46;8.55;;;1.80;;
69485;SDS011;56677;51.710;5.366;2023-05-02T07:54:17;4.32;;;1.55;;
69485;SDS011;56677;51.710;5.366;2023-05-02T07:56:43;6.30;;;1.90;;
69485;SDS011;56677;51.710;5.366;2023-05-02T07:59:08;4.93;;;1.80;;
69485;SDS011;56677;51.710;5.366;2023-05-02T08:01:33;5.85;;;1.88;;
69485;SDS011;56677;51.710;5.366;2023-05-02T08:03:58;5.22;;;1.95;;
69485;SDS011;56677;51.710;5.366;2023-05-02T08:06:23;7.78;;;1.65;;
69485;SDS011;56677;51.710;5.366;2023-05-02T08:08:48;6.10;;;1.95;;
69485;SDS011;56677;51.710;5.366;2023-05-02T08:11:13;4.60;;;2.03;;
69485;SDS011;56677;51.710;5.366;2023-05-02T08:13:38;6.10;;;1.93;;
69485;SDS011;56677;51.710;5.366;2023-05-02T08:16:04;5.70;;;1.58;;
69485;SDS011;56677;51.710;5.366;2023-05-02T08:18:29;5.37;;;1.80;;
69485;SDS011;56677;51.710;5.366;2023-05-02T08:20:54;7.20;;;1.77;;
69485;SDS011;56677;51.710;5.366;2023-05-02T08:23:19;4.63;;;1.83;;
69485;SDS011;56677;51.710;5.366;2023-05-02T08:25:44;4.20;;;1.97;;
69485;SDS011;56677;51.710;5.366;2023-05-02T08:28:10;9.17;;;2.20;;
69485;SDS011;56677;51.710;5.366;2023-05-02T08:30:35;5.88;;;1.80;;
69485;SDS011;56677;51.710;5.366;2023-05-02T08:33:00;5.05;;;1.90;;
69485;SDS011;56677;51.710;5.366;2023-05-02T08:35:27;8.43;;;1.90;;
69485;SDS011;56677;51.710;5.366;2023-05-02T08:37:52;2.95;;;1.42;;
69485;SDS011;56677;51.710;5.366;2023-05-02T08:40:17;5.40;;;1.83;;
69485;SDS011;56677;51.710;5.366;2023-05-02T08:42:44;4.75;;;1.90;;
69485;SDS011;56677;51.710;5.366;2023-05-02T08:45:10;4.47;;;1.80;;
69485;SDS011;56677;51.710;5.366;2023-05-02T08:47:37;4.43;;;1.80;;
69485;SDS011;56677;51.710;5.366;2023-05-02T08:50:02;4.50;;;1.90;;
69485;SDS011;56677;51.710;5.366;2023-05-02T08:52:28;4.55;;;2.13;;
69485;SDS011;56677;51.710;5.366;2023-05-02T08:54:53;4.97;;;1.90;;
69485;SDS011;56677;51.710;5.366;2023-05-02T08:57:18;6.10;;;1.83;;
69485;SDS011;56677;51.710;5.366;2023-05-02T08:59:43;6.90;;;2.15;;
69485;SDS011;56677;51.710;5.366;2023-05-02T09:02:15;5.97;;;1.75;;
69485;SDS011;56677;51.710;5.366;2023-05-02T09:04:41;6.53;;;1.90;;
69485;SDS011;56677;51.710;5.366;2023-05-02T09:07:07;4.73;;;2.03;;
69485;SDS011;56677;51.710;5.366;2023-05-02T09:09:32;5.43;;;1.63;;
69485;SDS011;56677;51.710;5.366;2023-05-02T09:11:58;4.83;;;1.97;;
69485;SDS011;56677;51.710;5.366;2023-05-02T09:14:23;5.37;;;1.80;;
69485;SDS011;56677;51.710;5.366;2023-05-02T09:16:48;7.15;;;1.88;;
69485;SDS011;56677;51.710;5.366;2023-05-02T09:19:22;5.40;;;1.97;;
69485;SDS011;56677;51.710;5.366;2023-05-02T09:21:47;4.35;;;2.20;;
69485;SDS011;56677;51.710;5.366;2023-05-02T09:24:16;5.13;;;2.00;;
69485;SDS011;56677;51.710;5.366;2023-05-02T09:26:43;4.18;;;1.77;;
69485;SDS011;56677;51.710;5.366;2023-05-02T09:29:19;7.73;;;2.13;;
69485;SDS011;56677;51.710;5.366;2023-05-02T09:31:45;4.63;;;1.95;;
69485;SDS011;56677;51.710;5.366;2023-05-02T09:34:11;6.97;;;2.25;;
69485;SDS011;56677;51.710;5.366;2023-05-02T09:36:40;6.23;;;2.17;;
69485;SDS011;56677;51.710;5.366;2023-05-02T09:39:09;4.70;;;2.17;;
69485;SDS011;56677;51.710;5.366;2023-05-02T09:41:44;3.83;;;2.15;;
69485;SDS011;56677;51.710;5.366;2023-05-02T09:44:10;3.45;;;2.08;;
69485;SDS011;56677;51.710;5.366;2023-05-02T09:46:42;5.60;;;1.85;;
69485;SDS011;56677;51.710;5.366;2023-05-02T09:49:07;3.93;;;1.50;;
69485;SDS011;56677;51.710;5.366;2023-05-02T09:51:32;5.70;;;1.90;;
69485;SDS011;56677;51.710;5.366;2023-05-02T09:53:58;5.20;;;1.95;;
69485;SDS011;56677;51.710;5.366;2023-05-02T09:56:23;3.47;;;1.80;;
69485;SDS011;56677;51.710;5.366;2023-05-02T09:58:48;5.85;;;2.47;;
69485;SDS011;56677;51.710;5.366;2023-05-02T10:01:14;6.75;;;1.58;;
69485;SDS011;56677;51.710;5.366;2023-05-02T10:03:39;4.32;;;2.00;;
69485;SDS011;56677;51.710;5.366;2023-05-02T10:06:05;4.40;;;2.03;;
69485;SDS011;56677;51.710;5.366;2023-05-02T10:08:32;4.13;;;1.80;;
69485;SDS011;56677;51.710;5.366;2023-05-02T10:10:58;6.45;;;1.73;;
69485;SDS011;56677;51.710;5.366;2023-05-02T10:13:23;6.30;;;2.33;;
69485;SDS011;56677;51.710;5.366;2023-05-02T10:15:53;5.05;;;1.73;;
69485;SDS011;56677;51.710;5.366;2023-05-02T10:18:25;7.33;;;2.03;;
69485;SDS011;56677;51.710;5.366;2023-05-02T10:20:55;6.15;;;1.73;;
69485;SDS011;56677;51.710;5.366;2023-05-02T10:23:20;7.40;;;1.65;;
69485;SDS011;56677;51.710;5.366;2023-05-02T10:25:46;6.43;;;1.80;;
69485;SDS011;56677;51.710;5.366;2023-05-02T10:28:12;5.43;;;1.70;;
69485;SDS011;56677;51.710;5.366;2023-05-02T10:30:38;4.47;;;1.67;;
69485;SDS011;56677;51.710;5.366;2023-05-02T10:33:04;5.47;;;2.20;;
69485;SDS011;56677;51.710;5.366;2023-05-02T10:35:29;5.77;;;1.60;;
69485;SDS011;56677;51.710;5.366;2023-05-02T10:37:55;4.63;;;2.13;;
69485;SDS011;56677;51.710;5.366;2023-05-02T10:40:21;6.13;;;2.30;;
69485;SDS011;56677;51.710;5.366;2023-05-02T10:42:46;6.93;;;1.98;;
69485;SDS011;56677;51.710;5.366;2023-05-02T10:53:21;5.60;;;2.33;;
69485;SDS011;56677;51.710;5.366;2023-05-02T10:56:06;4.28;;;1.85;;
69485;SDS011;56677;51.710;5.366;2023-05-02T10:58:31;3.83;;;1.98;;
69485;SDS011;56677;51.710;5.366;2023-05-02T11:01:06;4.00;;;1.90;;
69485;SDS011;56677;51.710;5.366;2023-05-02T11:06:19;4.60;;;1.92;;
69485;SDS011;56677;51.710;5.366;2023-05-02T11:08:44;4.03;;;1.70;;
69485;SDS011;56677;51.710;5.366;2023-05-02T11:14:10;3.92;;;1.80;;
69485;SDS011;56677;51.710;5.366;2023-05-02T11:19:19;4.57;;;1.90;;
69485;SDS011;56677;51.710;5.366;2023-05-02T11:21:44;3.60;;;1.90;;
69485;SDS011;56677;51.710;5.366;2023-05-02T11:26:54;3.50;;;1.80;;
69485;SDS011;56677;51.710;5.366;2023-05-02T11:30:11;4.07;;;1.90;;
69485;SDS011;56677;51.710;5.366;2023-05-02T11:35:22;5.13;;;1.40;;
69485;SDS011;56677;51.710;5.366;2023-05-02T11:40:18;4.28;;;1.70;;
69485;SDS011;56677;51.710;5.366;2023-05-02T11:42:43;4.60;;;1.57;;
69485;SDS011;56677;51.710;5.366;2023-05-02T11:45:08;3.65;;;1.75;;
69485;SDS011;56677;51.710;5.366;2023-05-02T11:47:34;4.87;;;1.60;;
69485;SDS011;56677;51.710;5.366;2023-05-02T11:50:02;5.80;;;1.97;;
69485;SDS011;56677;51.710;5.366;2023-05-02T11:52:28;9.20;;;1.80;;
69485;SDS011;56677;51.710;5.366;2023-05-02T11:54:53;5.57;;;2.10;;
69485;SDS011;56677;51.710;5.366;2023-05-02T11:57:18;3.37;;;1.63;;
69485;SDS011;56677;51.710;5.366;2023-05-02T11:59:51;5.72;;;2.10;;
69485;SDS011;56677;51.710;5.366;2023-05-02T12:02:16;3.45;;;2.00;;
69485;SDS011;56677;51.710;5.366;2023-05-02T12:04:44;4.13;;;2.00;;
69485;SDS011;56677;51.710;5.366;2023-05-02T12:07:09;4.25;;;1.73;;
69485;SDS011;56677;51.710;5.366;2023-05-02T12:09:34;3.53;;;1.77;;
69485;SDS011;56677;51.710;5.366;2023-05-02T12:11:59;5.38;;;1.73;;
69485;SDS011;56677;51.710;5.366;2023-05-02T12:14:25;8.40;;;1.60;;
69485;SDS011;56677;51.710;5.366;2023-05-02T12:16:51;4.70;;;2.10;;
69485;SDS011;56677;51.710;5.366;2023-05-02T12:19:16;5.57;;;1.70;;
69485;SDS011;56677;51.710;5.366;2023-05-02T12:21:41;8.70;;;1.85;;
69485;SDS011;56677;51.710;5.366;2023-05-02T12:24:06;4.03;;;1.83;;
69485;SDS011;56677;51.710;5.366;2023-05-02T12:26:31;5.93;;;1.90;;
69485;SDS011;56677;51.710;5.366;2023-05-02T12:28:56;6.57;;;1.90;;
69485;SDS011;56677;51.710;5.366;2023-05-02T12:31:22;5.70;;;1.80;;
69485;SDS011;56677;51.710;5.366;2023-05-02T12:33:47;3.13;;;1.20;;
69485;SDS011;56677;51.710;5.366;2023-05-02T12:36:12;4.20;;;1.10;;
69485;SDS011;56677;51.710;5.366;2023-05-02T12:38:37;5.40;;;1.40;;
69485;SDS011;56677;51.710;5.366;2023-05-02T12:41:02;7.05;;;1.98;;
69485;SDS011;56677;51.710;5.366;2023-05-02T12:43:27;3.53;;;1.60;;
69485;SDS011;56677;51.710;5.366;2023-05-02T12:46:09;5.15;;;1.73;;
69485;SDS011;56677;51.710;5.366;2023-05-02T12:48:35;5.60;;;1.73;;
69485;SDS011;56677;51.710;5.366;2023-05-02T12:51:00;5.40;;;1.73;;
69485;SDS011;56677;51.710;5.366;2023-05-02T12:53:41;4.32;;;2.00;;
69485;SDS011;56677;51.710;5.366;2023-05-02T12:56:06;5.75;;;1.95;;
69485;SDS011;56677;51.710;5.366;2023-05-02T13:01:06;9.23;;;1.90;;
69485;SDS011;56677;51.710;5.366;2023-05-02T13:03:31;8.18;;;1.77;;
69485;SDS011;56677;51.710;5.366;2023-05-02T13:05:56;8.85;;;1.83;;
69485;SDS011;56677;51.710;5.366;2023-05-02T13:08:21;6.07;;;1.63;;
69485;SDS011;56677;51.710;5.366;2023-05-02T13:10:46;6.00;;;2.03;;
69485;SDS011;56677;51.710;5.366;2023-05-02T13:13:12;4.63;;;1.57;;
69485;SDS011;56677;51.710;5.366;2023-05-02T13:15:37;7.90;;;1.60;;
69485;SDS011;56677;51.710;5.366;2023-05-02T13:18:02;6.43;;;2.28;;
69485;SDS011;56677;51.710;5.366;2023-05-02T13:20:27;7.10;;;2.00;;
69485;SDS011;56677;51.710;5.366;2023-05-02T13:22:52;3.95;;;1.77;;
69485;SDS011;56677;51.710;5.366;2023-05-02T13:25:17;3.92;;;1.67;;
69485;SDS011;56677;51.710;5.366;2023-05-02T13:27:42;4.32;;;1.70;;
69485;SDS011;56677;51.710;5.366;2023-05-02T13:30:08;5.32;;;1.90;;
69485;SDS011;56677;51.710;5.366;2023-05-02T13:32:33;5.63;;;2.00;;
69485;SDS011;56677;51.710;5.366;2023-05-02T13:34:58;5.78;;;1.75;;
69485;SDS011;56677;51.710;5.366;2023-05-02T13:37:23;6.28;;;1.83;;
69485;SDS011;56677;51.710;5.366;2023-05-02T13:39:48;4.10;;;1.63;;
69485;SDS011;56677;51.710;5.366;2023-05-02T13:42:13;5.57;;;1.80;;
69485;SDS011;56677;51.710;5.366;2023-05-02T13:44:38;6.37;;;1.80;;
69485;SDS011;56677;51.710;5.366;2023-05-02T13:47:04;5.80;;;1.90;;
69485;SDS011;56677;51.710;5.366;2023-05-02T13:49:29;4.05;;;1.63;;
69485;SDS011;56677;51.710;5.366;2023-05-02T13:51:54;3.28;;;1.50;;
69485;SDS011;56677;51.710;5.366;2023-05-02T13:54:19;4.23;;;2.10;;
69485;SDS011;56677;51.710;5.366;2023-05-02T13:56:44;5.05;;;1.90;;
69485;SDS011;56677;51.710;5.366;2023-05-02T13:59:09;4.82;;;1.40;;
69485;SDS011;56677;51.710;5.366;2023-05-02T14:01:35;4.60;;;2.10;;
69485;SDS011;56677;51.710;5.366;2023-05-02T14:04:00;5.93;;;1.90;;
69485;SDS011;56677;51.710;5.366;2023-05-02T14:06:25;3.03;;;1.73;;
69485;SDS011;56677;51.710;5.366;2023-05-02T14:08:50;6.78;;;1.90;;
69485;SDS011;56677;51.710;5.366;2023-05-02T14:11:15;4.35;;;2.00;;
69485;SDS011;56677;51.710;5.366;2023-05-02T14:13:40;3.13;;;1.50;;
69485;SDS011;56677;51.710;5.366;2023-05-02T14:16:06;3.57;;;1.40;;
69485;SDS011;56677;51.710;5.366;2023-05-02T14:18:31;5.23;;;1.77;;
69485;SDS011;56677;51.710;5.366;2023-05-02T14:20:56;4.75;;;1.95;;
69485;SDS011;56677;51.710;5.366;2023-05-02T14:23:21;3.83;;;1.77;;
69485;SDS011;56677;51.710;5.366;2023-05-02T14:25:46;7.07;;;1.90;;
69485;SDS011;56677;51.710;5.366;2023-05-02T14:28:11;5.45;;;2.00;;
69485;SDS011;56677;51.710;5.366;2023-05-02T14:30:36;7.25;;;2.08;;
69485;SDS011;56677;51.710;5.366;2023-05-02T14:33:01;6.97;;;2.30;;
69485;SDS011;56677;51.710;5.366;2023-05-02T14:35:27;5.00;;;1.70;;
69485;SDS011;56677;51.710;5.366;2023-05-02T14:37:52;3.53;;;1.52;;
69485;SDS011;56677;51.710;5.366;2023-05-02T14:40:17;5.80;;;2.33;;
69485;SDS011;56677;51.710;5.366;2023-05-02T14:42:42;6.80;;;2.85;;
69485;SDS011;56677;51.710;5.366;2023-05-02T14:45:10;6.68;;;2.10;;
69485;SDS011;56677;51.710;5.366;2023-05-02T14:47:35;7.78;;;2.47;;
69485;SDS011;56677;51.710;5.366;2023-05-02T14:50:03;4.28;;;2.10;;
69485;SDS011;56677;51.710;5.366;2023-05-02T14:52:28;6.13;;;2.97;;
69485;SDS011;56677;51.710;5.366;2023-05-02T14:54:54;6.40;;;2.37;;
69485;SDS011;56677;51.710;5.366;2023-05-02T14:57:19;7.63;;;2.70;;
69485;SDS011;56677;51.710;5.366;2023-05-02T14:59:44;5.90;;;2.40;;
69485;SDS011;56677;51.710;5.366;2023-05-02T15:02:09;8.73;;;2.80;;
69485;SDS011;56677;51.710;5.366;2023-05-02T15:04:34;7.30;;;2.35;;
69485;SDS011;56677;51.710;5.366;2023-05-02T15:06:59;6.47;;;2.37;;
69485;SDS011;56677;51.710;5.366;2023-05-02T15:09:25;6.10;;;2.57;;
69485;SDS011;56677;51.710;5.366;2023-05-02T15:11:50;7.63;;;2.17;;
69485;SDS011;56677;51.710;5.366;2023-05-02T15:14:15;5.80;;;2.38;;
69485;SDS011;56677;51.710;5.366;2023-05-02T15:16:40;9.45;;;2.50;;
69485;SDS011;56677;51.710;5.366;2023-05-02T15:19:05;5.38;;;2.35;;
69485;SDS011;56677;51.710;5.366;2023-05-02T15:21:30;8.20;;;2.10;;
69485;SDS011;56677;51.710;5.366;2023-05-02T15:23:55;5.00;;;2.03;;
69485;SDS011;56677;51.710;5.366;2023-05-02T15:26:20;4.80;;;1.88;;
69485;SDS011;56677;51.710;5.366;2023-05-02T15:28:45;15.70;;;7.72;;
69485;SDS011;56677;51.710;5.366;2023-05-02T15:31:11;19.00;;;10.25;;
69485;SDS011;56677;51.710;5.366;2023-05-02T15:33:36;27.03;;;19.87;;
69485;SDS011;56677;51.710;5.366;2023-05-02T15:36:01;30.48;;;23.95;;
69485;SDS011;56677;51.710;5.366;2023-05-02T15:38:26;32.35;;;24.23;;
69485;SDS011;56677;51.710;5.366;2023-05-02T15:40:52;27.55;;;23.55;;
69485;SDS011;56677;51.710;5.366;2023-05-02T15:43:17;29.53;;;23.77;;
69485;SDS011;56677;51.710;5.366;2023-05-02T15:45:42;31.83;;;24.75;;
69485;SDS011;56677;51.710;5.366;2023-05-02T15:48:08;27.37;;;22.90;;
69485;SDS011;56677;51.710;5.366;2023-05-02T15:50:33;34.15;;;26.48;;
69485;SDS011;56677;51.710;5.366;2023-05-02T15:52:58;27.63;;;23.10;;
69485;SDS011;56677;51.710;5.366;2023-05-02T15:55:23;28.00;;;24.23;;
69485;SDS011;56677;51.710;5.366;2023-05-02T15:57:48;29.50;;;24.70;;
69485;SDS011;56677;51.710;5.366;2023-05-02T16:00:13;29.02;;;23.63;;
69485;SDS011;56677;51.710;5.366;2023-05-02T16:02:39;30.20;;;23.30;;
69485;SDS011;56677;51.710;5.366;2023-05-02T16:05:04;27.98;;;22.60;;
69485;SDS011;56677;51.710;5.366;2023-05-02T16:07:29;27.77;;;21.23;;
69485;SDS011;56677;51.710;5.366;2023-05-02T16:09:54;32.43;;;21.43;;
69485;SDS011;56677;51.710;5.366;2023-05-02T16:12:20;24.77;;;19.20;;
69485;SDS011;56677;51.710;5.366;2023-05-02T16:14:45;23.85;;;19.38;;
69485;SDS011;56677;51.710;5.366;2023-05-02T16:17:10;22.77;;;18.70;;
69485;SDS011;56677;51.710;5.366;2023-05-02T16:19:35;25.85;;;19.50;;
69485;SDS011;56677;51.710;5.366;2023-05-02T16:22:00;22.25;;;18.17;;
69485;SDS011;56677;51.710;5.366;2023-05-02T16:24:25;23.08;;;17.85;;
69485;SDS011;56677;51.710;5.366;2023-05-02T16:26:50;24.10;;;17.33;;
69485;SDS011;56677;51.710;5.366;2023-05-02T16:29:16;21.17;;;15.15;;
69485;SDS011;56677;51.710;5.366;2023-05-02T16:31:41;19.33;;;15.97;;
69485;SDS011;56677;51.710;5.366;2023-05-02T16:34:06;17.73;;;14.52;;
69485;SDS011;56677;51.710;5.366;2023-05-02T16:36:31;21.50;;;15.02;;
69485;SDS011;56677;51.710;5.366;2023-05-02T16:38:56;18.52;;;15.15;;
69485;SDS011;56677;51.710;5.366;2023-05-02T16:41:21;20.80;;;14.67;;
69485;SDS011;56677;51.710;5.366;2023-05-02T16:43:47;19.38;;;14.70;;
69485;SDS011;56677;51.710;5.366;2023-05-02T16:46:13;18.60;;;14.23;;
69485;SDS011;56677;51.710;5.366;2023-05-02T16:48:38;19.13;;;12.82;;
69485;SDS011;56677;51.710;5.366;2023-05-02T16:51:03;18.70;;;12.88;;
69485;SDS011;56677;51.710;5.366;2023-05-02T16:53:28;16.20;;;12.70;;
69485;SDS011;56677;51.710;5.366;2023-05-02T16:55:53;20.10;;;12.95;;
69485;SDS011;56677;51.710;5.366;2023-05-02T16:58:18;18.93;;;13.80;;
69485;SDS011;56677;51.710;5.366;2023-05-02T17:00:43;16.73;;;12.55;;
69485;SDS011;56677;51.710;5.366;2023-05-02T17:03:08;16.92;;;12.25;;
69485;SDS011;56677;51.710;5.366;2023-05-02T17:05:34;21.10;;;11.63;;
69485;SDS011;56677;51.710;5.366;2023-05-02T17:07:59;18.37;;;11.60;;
69485;SDS011;56677;51.710;5.366;2023-05-02T17:10:24;15.68;;;11.10;;
69485;SDS011;56677;51.710;5.366;2023-05-02T17:12:49;15.23;;;11.50;;
69485;SDS011;56677;51.710;5.366;2023-05-02T17:15:14;15.95;;;11.13;;
69485;SDS011;56677;51.710;5.366;2023-05-02T17:17:39;14.27;;;10.75;;
69485;SDS011;56677;51.710;5.366;2023-05-02T17:20:05;14.80;;;10.80;;
69485;SDS011;56677;51.710;5.366;2023-05-02T17:22:31;18.13;;;11.10;;
69485;SDS011;56677;51.710;5.366;2023-05-02T17:24:56;16.00;;;10.68;;
69485;SDS011;56677;51.710;5.366;2023-05-02T17:27:22;16.80;;;10.70;;
69485;SDS011;56677;51.710;5.366;2023-05-02T17:29:47;17.20;;;10.23;;
69485;SDS011;56677;51.710;5.366;2023-05-02T17:32:12;14.32;;;9.88;;
69485;SDS011;56677;51.710;5.366;2023-05-02T17:34:37;15.05;;;10.07;;
69485;SDS011;56677;51.710;5.366;2023-05-02T17:37:02;13.70;;;9.77;;
69485;SDS011;56677;51.710;5.366;2023-05-02T17:39:27;13.90;;;9.73;;
69485;SDS011;56677;51.710;5.366;2023-05-02T17:41:53;12.73;;;9.18;;
69485;SDS011;56677;51.710;5.366;2023-05-02T17:44:18;13.82;;;10.02;;
69485;SDS011;56677;51.710;5.366;2023-05-02T17:46:43;14.20;;;9.35;;
69485;SDS011;56677;51.710;5.366;2023-05-02T17:49:08;12.40;;;8.90;;
69485;SDS011;56677;51.710;5.366;2023-05-02T17:51:33;13.68;;;8.70;;
69485;SDS011;56677;51.710;5.366;2023-05-02T17:53:58;13.25;;;8.80;;
69485;SDS011;56677;51.710;5.366;2023-05-02T17:56:24;12.57;;;8.90;;
69485;SDS011;56677;51.710;5.366;2023-05-02T17:58:49;12.88;;;8.77;;
69485;SDS011;56677;51.710;5.366;2023-05-02T18:01:14;12.27;;;8.02;;
69485;SDS011;56677;51.710;5.366;2023-05-02T18:03:39;13.15;;;8.55;;
69485;SDS011;56677;51.710;5.366;2023-05-02T18:06:04;11.07;;;8.37;;
69485;SDS011;56677;51.710;5.366;2023-05-02T18:08:30;13.13;;;9.20;;
69485;SDS011;56677;51.710;5.366;2023-05-02T18:10:55;14.38;;;8.43;;
69485;SDS011;56677;51.710;5.366;2023-05-02T18:13:20;11.98;;;7.40;;
69485;SDS011;56677;51.710;5.366;2023-05-02T18:15:53;11.27;;;7.85;;
69485;SDS011;56677;51.710;5.366;2023-05-02T18:18:18;9.33;;;7.37;;
69485;SDS011;56677;51.710;5.366;2023-05-02T18:20:43;11.80;;;7.63;;
69485;SDS011;56677;51.710;5.366;2023-05-02T18:23:08;10.60;;;6.88;;
69485;SDS011;56677;51.710;5.366;2023-05-02T18:25:33;9.80;;;7.78;;
69485;SDS011;56677;51.710;5.366;2023-05-02T18:27:59;10.00;;;6.83;;
69485;SDS011;56677;51.710;5.366;2023-05-02T18:30:24;10.63;;;7.05;;
69485;SDS011;56677;51.710;5.366;2023-05-02T18:32:49;9.13;;;6.53;;
69485;SDS011;56677;51.710;5.366;2023-05-02T18:35:14;10.38;;;6.53;;
69485;SDS011;56677;51.710;5.366;2023-05-02T18:37:39;10.50;;;6.85;;
69485;SDS011;56677;51.710;5.366;2023-05-02T18:40:04;9.27;;;6.43;;
69485;SDS011;56677;51.710;5.366;2023-05-02T18:42:30;10.63;;;7.03;;
69485;SDS011;56677;51.710;5.366;2023-05-02T18:44:55;9.43;;;6.25;;
69485;SDS011;56677;51.710;5.366;2023-05-02T18:47:20;9.68;;;6.20;;
69485;SDS011;56677;51.710;5.366;2023-05-02T18:49:45;9.65;;;6.13;;
69485;SDS011;56677;51.710;5.366;2023-05-02T18:52:10;8.93;;;6.13;;
69485;SDS011;56677;51.710;5.366;2023-05-02T18:54:35;9.25;;;6.20;;
69485;SDS011;56677;51.710;5.366;2023-05-02T18:57:01;10.63;;;5.75;;
69485;SDS011;56677;51.710;5.366;2023-05-02T18:59:26;8.63;;;5.83;;
69485;SDS011;56677;51.710;5.366;2023-05-02T19:01:51;9.35;;;5.50;;
69485;SDS011;56677;51.710;5.366;2023-05-02T19:04:16;8.10;;;5.57;;
69485;SDS011;56677;51.710;5.366;2023-05-02T19:06:41;8.75;;;5.45;;
69485;SDS011;56677;51.710;5.366;2023-05-02T19:09:06;7.03;;;5.20;;
69485;SDS011;56677;51.710;5.366;2023-05-02T19:11:31;8.23;;;6.00;;